Time;durP1;ratioP1;P1;durP2;ratioP2;P2;SDS_P1;SDS_P2;PMS_P1;PMS_P2;Temp;Humidity;BMP_temperature;BMP_pressure;BME280_temperature;BME280_humidity;BME280_pressure;Samples;Min_cycle;Max_cycle;Signal;HPM_P1;HPM_P2
2023/05/22 00:01:18;;;;;;;14.52;11.35;;;18.70;99.90;;;;;;5015322;28;20022;-80
2023/05/22 00:03:45;;;;;;;14.43;10.63;;;18.70;99.90;;;;;;5019679;28;20026;-81
2023/05/22 00:06:10;;;;;;;12.68;10.50;;;18.70;99.90;;;;;;5018080;28;20084;-81
2023/05/22 00:08:36;;;;;;;12.50;10.60;;;18.70;99.90;;;;;;5015998;28;20044;-81
2023/05/22 00:11:02;;;;;;;13.55;11.40;;;18.60;99.90;;;;;;5021829;28;20513;-81
2023/05/22 00:13:28;;;;;;;15.10;11.35;;;18.60;99.90;;;;;;5016414;28;20079;-81
2023/05/22 00:15:53;;;;;;;14.90;10.55;;;18.60;99.90;;;;;;5016294;28;20021;-81
2023/05/22 00:18:19;;;;;;;11.80;10.48;;;18.50;99.90;;;;;;5017997;28;20057;-81
2023/05/22 00:20:45;;;;;;;13.05;10.40;;;18.50;99.90;;;;;;5017200;28;20156;-81
2023/05/22 00:23:12;;;;;;;13.05;11.07;;;18.40;99.90;;;;;;5016576;28;20519;-81
2023/05/22 00:25:37;;;;;;;13.85;11.02;;;18.40;99.90;;;;;;5015845;28;20064;-81
2023/05/22 00:28:04;;;;;;;13.30;10.65;;;18.30;99.90;;;;;;5017146;28;20128;-81
2023/05/22 00:30:30;;;;;;;14.60;10.27;;;18.30;99.90;;;;;;5031948;28;20368;-82
2023/05/22 00:32:56;;;;;;;11.80;10.10;;;18.20;99.90;;;;;;5018699;28;20034;-82
2023/05/22 00:35:22;;;;;;;13.82;10.40;;;18.20;99.90;;;;;;5017244;28;20458;-82
2023/05/22 00:37:47;;;;;;;12.90;9.45;;;18.20;99.90;;;;;;5015885;28;20037;-82
2023/05/22 00:40:16;;;;;;;14.32;9.68;;;18.10;99.90;;;;;;5017557;28;20021;-82
2023/05/22 00:42:45;;;;;;;12.02;10.65;;;18.10;99.90;;;;;;5015155;28;20037;-82
2023/05/22 00:45:13;;;;;;;13.30;10.63;;;18.00;99.90;;;;;;5015315;28;20022;-82
2023/05/22 00:47:39;;;;;;;12.90;10.38;;;17.90;99.90;;;;;;5016098;28;20103;-83
2023/05/22 00:50:05;;;;;;;13.27;10.05;;;17.90;99.90;;;;;;5033004;28;20450;-82
2023/05/22 00:52:33;;;;;;;12.98;9.50;;;17.80;99.90;;;;;;5014689;28;20034;-82
2023/05/22 00:54:59;;;;;;;13.02;9.73;;;17.80;99.90;;;;;;5016317;28;20146;-82
2023/05/22 00:57:26;;;;;;;12.27;9.82;;;17.80;99.90;;;;;;5015693;28;20029;-82
2023/05/22 00:59:51;;;;;;;12.45;8.88;;;17.80;99.90;;;;;;5014464;28;20063;-82
2023/05/22 01:02:17;;;;;;;12.30;9.65;;;17.70;99.90;;;;;;5016125;28;20079;-82
2023/05/22 01:04:49;;;;;;;11.60;9.07;;;17.70;99.90;;;;;;5017505;28;20029;-82
2023/05/22 01:07:18;;;;;;;15.65;10.82;;;17.70;99.90;;;;;;5030443;28;20022;-82
2023/05/22 01:09:43;;;;;;;15.93;10.32;;;17.60;99.90;;;;;;5031010;28;20036;-82
2023/05/22 01:12:34;;;;;;;13.20;10.20;;;17.60;99.90;;;;;;5016100;28;20046;-81
2023/05/22 01:15:13;;;;;;;13.35;9.73;;;17.60;99.90;;;;;;5017136;28;20030;-81
2023/05/22 01:18:06;;;;;;;11.90;8.80;;;17.50;99.90;;;;;;5016265;28;20040;-82
2023/05/22 01:20:42;;;;;;;11.93;8.35;;;17.50;99.90;;;;;;5017164;28;20072;-81
2023/05/22 01:23:45;;;;;;;13.63;8.98;;;17.50;99.90;;;;;;5015244;28;20029;-81
2023/05/22 01:26:42;;;;;;;13.52;10.05;;;17.50;99.90;;;;;;5015478;28;20141;-81
2023/05/22 01:29:38;;;;;;;13.02;10.13;;;17.50;99.90;;;;;;5015423;28;20036;-82
2023/05/22 01:32:04;;;;;;;12.57;9.73;;;17.40;99.90;;;;;;5016198;28;20034;-82
2023/05/22 01:34:32;;;;;;;14.20;10.75;;;17.40;99.90;;;;;;5016482;28;20060;-82
2023/05/22 01:37:00;;;;;;;12.65;9.30;;;17.40;99.90;;;;;;5015463;28;20025;-81
2023/05/22 01:39:27;;;;;;;11.80;9.07;;;17.40;99.90;;;;;;5013639;28;20403;-82
2023/05/22 01:41:53;;;;;;;16.38;11.70;;;17.40;99.90;;;;;;5016712;28;20018;-81
2023/05/22 01:44:18;;;;;;;16.25;11.48;;;17.30;99.90;;;;;;5014536;28;20092;-81
2023/05/22 01:46:44;;;;;;;15.90;12.65;;;17.30;99.90;;;;;;5014881;28;20531;-80
2023/05/22 01:49:09;;;;;;;12.98;10.15;;;17.20;99.90;;;;;;5017130;28;20034;-79
2023/05/22 01:51:38;;;;;;;14.30;10.40;;;17.20;99.90;;;;;;5014881;28;20030;-82
2023/05/22 01:54:16;;;;;;;12.98;10.18;;;17.20;99.90;;;;;;5015229;28;20022;-82
2023/05/22 01:56:58;;;;;;;11.15;9.13;;;17.20;99.90;;;;;;5015707;28;20092;-81
2023/05/22 01:59:36;;;;;;;12.10;8.98;;;17.20;99.90;;;;;;5015093;28;20515;-81
2023/05/22 02:02:05;;;;;;;10.88;8.55;;;17.20;99.90;;;;;;5015179;28;20479;-81
2023/05/22 02:04:34;;;;;;;12.65;9.00;;;17.20;99.90;;;;;;5015340;28;20064;-82
2023/05/22 02:07:01;;;;;;;10.98;8.73;;;17.20;99.90;;;;;;5016284;28;20041;-82
2023/05/22 02:09:29;;;;;;;11.35;9.32;;;17.20;99.90;;;;;;5030106;28;20025;-81
2023/05/22 02:11:56;;;;;;;13.02;9.48;;;17.20;99.90;;;;;;5030421;28;20091;-81
2023/05/22 02:14:22;;;;;;;13.77;9.45;;;17.10;99.90;;;;;;5014266;28;20060;-81
2023/05/22 02:16:49;;;;;;;13.68;9.95;;;17.10;99.90;;;;;;5015499;28;20033;-82
2023/05/22 02:19:15;;;;;;;12.25;9.25;;;17.00;99.90;;;;;;5015332;28;20180;-82
2023/05/22 02:21:41;;;;;;;11.40;9.30;;;17.00;99.90;;;;;;5015995;28;20108;-82
2023/05/22 02:24:06;;;;;;;12.05;9.18;;;17.00;99.90;;;;;;5014619;28;20476;-82
2023/05/22 02:26:32;;;;;;;14.73;9.00;;;16.90;99.90;;;;;;5014794;28;20025;-82
2023/05/22 02:28:58;;;;;;;12.48;9.38;;;16.90;99.90;;;;;;5014353;28;20037;-82
2023/05/22 02:31:23;;;;;;;12.60;9.25;;;16.80;99.90;;;;;;5014738;28;20079;-82
2023/05/22 02:33:49;;;;;;;13.18;10.85;;;16.80;99.90;;;;;;5016296;28;20030;-82
2023/05/22 02:36:15;;;;;;;15.27;10.43;;;16.70;99.90;;;;;;5015761;28;20095;-82
2023/05/22 02:38:40;;;;;;;11.52;9.88;;;16.60;99.90;;;;;;5015289;28;20065;-82
2023/05/22 02:41:07;;;;;;;10.88;8.93;;;16.60;99.90;;;;;;5013825;28;20060;-82
2023/05/22 02:43:32;;;;;;;13.25;9.95;;;16.50;99.90;;;;;;5014971;28;20037;-82
2023/05/22 02:45:58;;;;;;;12.82;9.70;;;16.50;99.90;;;;;;5014466;28;20075;-81
2023/05/22 02:48:24;;;;;;;12.27;9.68;;;16.40;99.90;;;;;;5014584;28;20041;-80
2023/05/22 02:50:49;;;;;;;13.18;9.15;;;16.40;99.90;;;;;;5014308;28;20036;-81
2023/05/22 02:53:15;;;;;;;12.98;9.88;;;16.40;99.90;;;;;;5013342;28;20112;-81
2023/05/22 02:55:42;;;;;;;13.57;9.63;;;16.40;99.90;;;;;;5014389;28;20025;-81
2023/05/22 02:58:10;;;;;;;13.55;9.68;;;16.40;99.90;;;;;;5014743;28;20254;-82
2023/05/22 03:00:42;;;;;;;13.40;8.75;;;16.40;99.90;;;;;;5014565;28;20025;-81
2023/05/22 03:03:07;;;;;;;12.57;9.00;;;16.40;99.90;;;;;;5015091;28;20436;-81
2023/05/22 03:05:33;;;;;;;12.20;9.27;;;16.40;99.90;;;;;;5014816;28;20037;-81
2023/05/22 03:07:59;;;;;;;13.23;9.35;;;16.30;99.90;;;;;;5016555;28;20037;-81
2023/05/22 03:10:24;;;;;;;13.35;10.20;;;16.30;99.90;;;;;;5012791;28;20026;-81
2023/05/22 03:12:50;;;;;;;13.15;9.80;;;16.20;99.90;;;;;;5013786;28;20056;-82
2023/05/22 03:15:16;;;;;;;12.70;9.57;;;16.20;99.90;;;;;;5012911;28;20498;-82
2023/05/22 03:17:42;;;;;;;13.80;9.43;;;16.20;99.90;;;;;;5014004;28;20365;-82
2023/05/22 03:20:08;;;;;;;14.75;10.48;;;16.20;99.90;;;;;;5015567;28;20037;-82
2023/05/22 03:22:34;;;;;;;15.07;10.10;;;16.10;99.90;;;;;;5013745;28;20140;-82
2023/05/22 03:25:00;;;;;;;12.63;9.32;;;16.10;99.90;;;;;;5014189;28;20555;-81
2023/05/22 03:27:26;;;;;;;13.15;9.07;;;16.10;99.90;;;;;;5012474;28;20391;-81
2023/05/22 03:29:51;;;;;;;14.60;9.98;;;16.10;99.90;;;;;;5014234;28;20037;-82
2023/05/22 03:32:17;;;;;;;13.10;8.80;;;16.10;99.90;;;;;;5013531;28;20026;-82
2023/05/22 03:34:42;;;;;;;11.23;8.45;;;16.00;99.90;;;;;;5016039;28;20064;-81
2023/05/22 03:37:08;;;;;;;13.18;8.98;;;16.00;99.90;;;;;;5016065;28;20040;-81
2023/05/22 03:39:34;;;;;;;12.85;9.90;;;16.00;99.90;;;;;;5013304;28;20033;-82
2023/05/22 03:42:00;;;;;;;12.95;9.35;;;16.00;99.90;;;;;;5014565;28;20126;-81
2023/05/22 03:44:26;;;;;;;13.00;9.88;;;16.00;99.90;;;;;;5013790;28;20760;-81
2023/05/22 03:46:51;;;;;;;13.07;10.43;;;16.00;99.90;;;;;;5013837;28;20499;-82
2023/05/22 03:49:17;;;;;;;13.10;10.73;;;15.90;99.90;;;;;;5012765;28;20105;-82
2023/05/22 03:51:42;;;;;;;11.98;8.45;;;15.90;99.90;;;;;;5014625;28;20117;-83
2023/05/22 03:54:08;;;;;;;9.30;7.35;;;15.90;99.90;;;;;;5015646;28;20800;-82
2023/05/22 03:56:34;;;;;;;12.75;9.93;;;15.80;99.90;;;;;;5013100;28;20057;-82
2023/05/22 03:58:59;;;;;;;10.88;8.93;;;15.90;99.90;;;;;;5029478;28;20507;-82
2023/05/22 04:01:25;;;;;;;11.95;9.40;;;15.90;99.90;;;;;;5013738;28;20057;-81
2023/05/22 04:03:51;;;;;;;11.95;9.32;;;15.90;99.90;;;;;;5013418;28;20022;-81
2023/05/22 04:06:20;;;;;;;13.25;10.13;;;15.90;99.90;;;;;;5012927;28;20032;-82
2023/05/22 04:08:47;;;;;;;15.55;10.57;;;15.80;99.90;;;;;;5015767;28;20026;-82
2023/05/22 04:11:14;;;;;;;14.45;10.18;;;15.80;99.90;;;;;;5012430;28;20044;-80
2023/05/22 04:13:40;;;;;;;12.88;10.38;;;15.80;99.90;;;;;;5013704;28;20034;-81
2023/05/22 04:16:06;;;;;;;11.20;9.05;;;15.80;99.90;;;;;;5012944;28;20030;-82
2023/05/22 04:18:31;;;;;;;13.77;9.23;;;15.80;99.90;;;;;;5013032;28;20042;-81
2023/05/22 04:20:57;;;;;;;11.25;9.18;;;15.80;99.90;;;;;;5013232;28;20026;-81
2023/05/22 04:23:22;;;;;;;13.23;10.50;;;15.90;99.90;;;;;;5014888;28;20037;-81
2023/05/22 04:25:49;;;;;;;14.70;9.95;;;15.90;99.90;;;;;;5013349;28;20045;-81
2023/05/22 04:28:21;;;;;;;14.07;10.38;;;15.90;99.90;;;;;;5014610;28;20053;-82
2023/05/22 04:30:49;;;;;;;11.93;8.63;;;15.90;99.90;;;;;;5015877;28;20066;-82
2023/05/22 04:33:15;;;;;;;12.45;10.40;;;15.90;99.90;;;;;;5016598;28;20025;-82
2023/05/22 04:35:41;;;;;;;12.63;9.90;;;15.90;99.90;;;;;;5016722;28;20652;-81
2023/05/22 04:38:06;;;;;;;13.60;10.40;;;15.90;99.90;;;;;;5017226;28;20091;-82
2023/05/22 04:40:33;;;;;;;14.93;10.02;;;15.90;99.90;;;;;;5013851;28;20341;-81
2023/05/22 04:42:59;;;;;;;14.18;11.00;;;15.90;99.90;;;;;;5013974;28;21002;-82
2023/05/22 04:45:27;;;;;;;14.65;11.02;;;15.90;99.90;;;;;;5011793;28;20025;-80
2023/05/22 04:47:53;;;;;;;14.10;10.68;;;15.90;99.90;;;;;;5013855;28;20089;-80
2023/05/22 04:50:19;;;;;;;14.77;11.20;;;15.90;99.90;;;;;;5013760;28;20433;-80
2023/05/22 04:52:46;;;;;;;15.20;11.00;;;15.90;99.90;;;;;;5018191;28;20025;-80
2023/05/22 04:55:11;;;;;;;14.35;10.93;;;15.90;99.90;;;;;;5006388;28;20143;-81
2023/05/22 04:57:38;;;;;;;13.10;10.25;;;15.90;99.90;;;;;;5005921;28;20036;-80
2023/05/22 05:00:05;;;;;;;12.50;9.13;;;15.90;99.90;;;;;;5011247;28;20057;-81
2023/05/22 05:02:30;;;;;;;13.57;9.63;;;15.90;99.90;;;;;;5011647;28;20060;-81
2023/05/22 05:04:56;;;;;;;13.20;9.02;;;16.00;99.90;;;;;;5013093;28;20112;-82
2023/05/22 05:07:22;;;;;;;13.05;10.45;;;16.00;99.90;;;;;;5013819;28;20040;-81
2023/05/22 05:09:48;;;;;;;12.45;9.93;;;16.10;99.90;;;;;;5013340;28;20487;-82
2023/05/22 05:12:15;;;;;;;11.90;9.60;;;16.10;99.90;;;;;;5013602;28;20049;-81
2023/05/22 05:14:40;;;;;;;16.25;11.20;;;16.10;99.90;;;;;;5011995;28;20022;-82
2023/05/22 05:17:06;;;;;;;14.90;12.25;;;16.20;99.90;;;;;;5012726;28;20328;-81
2023/05/22 05:19:31;;;;;;;16.40;13.32;;;16.20;99.90;;;;;;5010378;28;20447;-82
2023/05/22 05:21:57;;;;;;;14.98;13.10;;;16.20;99.90;;;;;;5014449;28;20121;-82
2023/05/22 05:24:22;;;;;;;15.18;13.15;;;16.20;99.90;;;;;;5012949;28;20033;-82
2023/05/22 05:26:49;;;;;;;14.35;12.73;;;16.20;99.90;;;;;;5011829;28;20400;-82
2023/05/22 05:29:15;;;;;;;14.57;12.90;;;16.10;99.90;;;;;;5011303;28;20033;-82
2023/05/22 05:31:41;;;;;;;13.27;11.75;;;16.10;99.90;;;;;;5012323;28;20127;-82
2023/05/22 05:34:06;;;;;;;12.48;10.20;;;16.10;99.90;;;;;;5014140;28;20033;-82
2023/05/22 05:36:32;;;;;;;14.10;10.30;;;16.10;99.90;;;;;;5015304;28;20025;-82
2023/05/22 05:38:57;;;;;;;11.07;9.82;;;16.20;99.90;;;;;;5007933;28;20064;-83
2023/05/22 05:41:25;;;;;;;11.98;10.57;;;16.20;99.90;;;;;;4998282;28;20091;-81
2023/05/22 05:43:51;;;;;;;14.45;11.50;;;16.30;99.90;;;;;;5005909;28;20403;-82
2023/05/22 05:46:18;;;;;;;12.52;10.95;;;16.30;99.90;;;;;;5014017;28;20133;-82
2023/05/22 05:48:44;;;;;;;13.40;11.13;;;16.30;99.90;;;;;;5014786;28;20029;-82
2023/05/22 05:51:09;;;;;;;11.63;9.90;;;16.40;99.90;;;;;;5008343;28;20387;-80
2023/05/22 05:53:39;;;;;;;14.43;11.43;;;16.50;99.90;;;;;;5004072;28;20030;-81
2023/05/22 05:56:06;;;;;;;12.52;10.85;;;16.50;99.90;;;;;;5012442;28;20018;-83
2023/05/22 05:58:31;;;;;;;13.93;11.82;;;16.50;99.90;;;;;;5011683;28;20087;-82
2023/05/22 06:00:57;;;;;;;14.38;12.10;;;16.50;99.90;;;;;;5012856;28;20104;-83
2023/05/22 06:03:24;;;;;;;16.33;13.88;;;16.50;99.90;;;;;;5013262;28;20088;-84
2023/05/22 06:05:50;;;;;;;14.23;12.52;;;16.50;99.90;;;;;;5015610;28;20029;-82
2023/05/22 06:08:15;;;;;;;14.25;12.75;;;16.50;99.90;;;;;;5012642;28;20540;-82
2023/05/22 06:10:41;;;;;;;13.40;11.13;;;16.50;99.90;;;;;;5013329;28;20037;-82
2023/05/22 06:13:06;;;;;;;12.77;10.23;;;16.60;99.90;;;;;;5013506;28;20068;-82
2023/05/22 06:15:32;;;;;;;13.30;10.95;;;16.70;99.90;;;;;;5013914;28;20034;-82
2023/05/22 06:17:58;;;;;;;14.00;11.50;;;16.80;99.90;;;;;;5013809;28;20056;-82
2023/05/22 06:20:24;;;;;;;12.75;10.50;;;16.80;99.90;;;;;;5013551;28;20040;-82
2023/05/22 06:22:50;;;;;;;11.98;10.10;;;16.90;99.90;;;;;;5014735;28;20230;-82
2023/05/22 06:25:16;;;;;;;14.30;11.82;;;17.10;99.90;;;;;;5014092;28;20025;-82
2023/05/22 06:27:41;;;;;;;18.35;14.20;;;17.20;99.90;;;;;;5013717;28;20091;-82
2023/05/22 06:30:08;;;;;;;16.48;13.38;;;17.20;99.90;;;;;;5013652;28;20381;-82
2023/05/22 06:32:33;;;;;;;13.30;11.63;;;17.20;99.90;;;;;;5012581;28;20038;-81
2023/05/22 06:34:59;;;;;;;12.02;10.02;;;17.30;99.90;;;;;;5013719;28;21475;-81
2023/05/22 06:37:25;;;;;;;15.63;12.75;;;17.30;99.90;;;;;;5017527;28;20025;-82
2023/05/22 06:39:50;;;;;;;13.35;11.82;;;17.30;99.90;;;;;;5013991;28;20075;-80
2023/05/22 06:42:16;;;;;;;13.07;11.00;;;17.30;99.90;;;;;;5011868;28;20030;-81
2023/05/22 06:44:41;;;;;;;11.52;10.32;;;17.30;99.90;;;;;;5014252;28;20033;-81
2023/05/22 06:47:07;;;;;;;12.70;10.80;;;17.40;99.90;;;;;;5014078;28;20033;-81
2023/05/22 06:49:33;;;;;;;13.73;10.75;;;17.50;99.90;;;;;;5012233;28;20212;-83
2023/05/22 06:51:58;;;;;;;11.82;9.80;;;17.50;99.90;;;;;;5012913;28;20660;-84
2023/05/22 06:54:27;;;;;;;12.80;10.57;;;17.50;99.90;;;;;;5014723;28;20048;-85
2023/05/22 06:56:53;;;;;;;12.88;10.63;;;17.60;99.90;;;;;;5014984;28;20107;-81
2023/05/22 06:59:19;;;;;;;12.45;10.43;;;17.60;99.90;;;;;;5013067;28;20033;-85
2023/05/22 07:01:45;;;;;;;11.85;10.20;;;17.70;99.90;;;;;;5013294;28;20083;-83
2023/05/22 07:04:12;;;;;;;13.35;10.80;;;17.80;99.90;;;;;;5014750;28;20021;-85
2023/05/22 07:06:40;;;;;;;11.52;9.75;;;17.80;99.90;;;;;;5013337;28;20034;-84
2023/05/22 07:09:07;;;;;;;10.68;8.95;;;17.90;99.90;;;;;;5030038;28;20045;-84
2023/05/22 07:11:34;;;;;;;11.43;9.98;;;18.00;99.90;;;;;;5013540;28;20142;-83
2023/05/22 07:14:01;;;;;;;9.70;8.43;;;18.10;99.90;;;;;;5019801;28;20116;-87
2023/05/22 07:16:26;;;;;;;11.50;9.40;;;18.20;99.90;;;;;;5025228;28;20516;-87
2023/05/22 07:18:52;;;;;;;11.07;9.45;;;18.30;99.90;;;;;;5015133;28;20060;-86
2023/05/22 07:21:17;;;;;;;11.40;9.73;;;18.40;99.90;;;;;;5016776;28;20116;-87
2023/05/22 07:23:43;;;;;;;13.13;11.15;;;18.50;99.90;;;;;;5017444;28;20059;-89
2023/05/22 07:26:09;;;;;;;13.73;11.70;;;18.50;99.90;;;;;;5018812;28;20018;-86
2023/05/22 07:28:34;;;;;;;12.23;10.27;;;18.60;99.90;;;;;;5015562;28;20029;-86
2023/05/22 07:31:00;;;;;;;11.88;10.52;;;18.70;99.90;;;;;;5016477;28;20498;-87
2023/05/22 07:33:26;;;;;;;12.02;9.90;;;18.80;99.90;;;;;;5016255;28;20502;-87
2023/05/22 07:35:51;;;;;;;11.10;9.88;;;18.80;99.90;;;;;;5013924;28;20026;-85
2023/05/22 07:38:17;;;;;;;13.27;11.40;;;18.80;99.90;;;;;;5013473;28;20071;-88
2023/05/22 07:40:43;;;;;;;15.05;12.13;;;18.90;99.90;;;;;;5014912;28;20033;-84
2023/05/22 07:43:08;;;;;;;12.63;9.88;;;19.00;99.90;;;;;;5010602;28;20556;-83
2023/05/22 07:45:34;;;;;;;11.70;10.38;;;19.10;99.90;;;;;;5012604;28;20342;-83
2023/05/22 07:48:02;;;;;;;15.10;10.48;;;19.30;99.90;;;;;;5010637;28;20041;-83
2023/05/22 07:50:29;;;;;;;11.63;9.85;;;19.30;99.90;;;;;;5010320;28;20622;-83
2023/05/22 07:52:55;;;;;;;11.60;9.30;;;19.40;99.90;;;;;;5011705;28;20461;-82
2023/05/22 07:55:20;;;;;;;11.18;9.60;;;19.50;99.90;;;;;;5013249;28;20024;-84
2023/05/22 07:57:46;;;;;;;9.25;8.02;;;19.60;99.90;;;;;;5012394;28;20563;-84
2023/05/22 08:00:12;;;;;;;10.07;8.07;;;19.70;99.90;;;;;;5012119;28;20027;-85
2023/05/22 08:02:39;;;;;;;8.93;7.95;;;19.80;99.90;;;;;;5012896;28;20021;-86
2023/05/22 08:05:06;;;;;;;9.75;8.30;;;19.90;99.90;;;;;;5016220;28;20540;-86
2023/05/22 08:07:32;;;;;;;9.80;8.43;;;20.00;99.90;;;;;;5024146;28;20033;-85
2023/05/22 08:09:58;;;;;;;8.65;7.30;;;20.00;99.90;;;;;;5017151;28;20053;-85
2023/05/22 08:12:23;;;;;;;9.20;7.85;;;20.10;99.90;;;;;;5018384;28;20172;-86
2023/05/22 08:14:49;;;;;;;9.45;8.15;;;20.20;99.90;;;;;;5014154;28;20040;-86
2023/05/22 08:17:15;;;;;;;9.77;7.95;;;20.30;99.90;;;;;;5015771;28;20472;-85
2023/05/22 08:19:40;;;;;;;8.18;7.18;;;20.50;99.90;;;;;;5013938;28;20080;-87
2023/05/22 08:22:06;;;;;;;10.10;8.32;;;20.60;99.90;;;;;;5014793;28;20028;-83
2023/05/22 08:24:31;;;;;;;9.75;7.82;;;20.70;99.90;;;;;;5015044;28;20611;-85
2023/05/22 08:26:59;;;;;;;9.05;7.88;;;20.90;99.90;;;;;;5015693;28;20022;-85
2023/05/22 08:29:25;;;;;;;8.75;7.82;;;21.00;99.90;;;;;;5012651;28;21638;-84
2023/05/22 08:31:52;;;;;;;10.45;9.20;;;21.10;99.90;;;;;;5015611;28;20108;-85
2023/05/22 08:34:18;;;;;;;9.27;8.27;;;21.20;99.90;;;;;;5014121;28;20037;-85
2023/05/22 08:36:43;;;;;;;9.40;7.68;;;21.20;99.90;;;;;;5020251;28;20473;-88
2023/05/22 08:39:11;;;;;;;10.20;8.25;;;21.20;99.90;;;;;;5021351;28;20029;-90
2023/05/22 08:41:37;;;;;;;9.07;8.13;;;21.30;99.90;;;;;;5014789;28;20109;-89
2023/05/22 08:44:02;;;;;;;10.05;8.45;;;21.40;99.90;;;;;;5031413;28;20079;-87
2023/05/22 08:46:29;;;;;;;9.52;8.30;;;21.40;99.90;;;;;;5013287;28;20036;-87
2023/05/22 08:48:58;;;;;;;10.18;8.75;;;21.50;99.90;;;;;;5014909;28;20026;-85
2023/05/22 08:51:30;;;;;;;8.93;8.02;;;21.70;99.90;;;;;;5030666;28;20025;-85
2023/05/22 08:53:56;;;;;;;11.00;9.90;;;21.80;99.90;;;;;;5016531;28;20391;-84
2023/05/22 08:56:21;;;;;;;10.32;9.23;;;21.90;99.90;;;;;;5012914;28;20388;-84
2023/05/22 08:58:50;;;;;;;11.10;9.88;;;22.00;99.90;;;;;;5014786;28;20117;-85
2023/05/22 09:01:16;;;;;;;10.10;8.80;;;22.10;99.90;;;;;;5014235;28;20021;-85
2023/05/22 09:03:42;;;;;;;10.73;9.60;;;22.20;99.90;;;;;;5015652;28;20029;-84
2023/05/22 09:06:09;;;;;;;9.77;8.60;;;22.30;99.90;;;;;;5016243;28;20037;-85
2023/05/22 09:08:36;;;;;;;9.98;8.48;;;22.40;99.90;;;;;;5016687;28;20072;-87
2023/05/22 09:11:02;;;;;;;10.57;8.30;;;22.50;99.90;;;;;;5015312;28;20096;-86
2023/05/22 09:13:29;;;;;;;9.50;8.00;;;22.60;99.90;;;;;;5023868;28;20120;-84
2023/05/22 09:16:08;;;;;;;9.20;8.13;;;22.70;99.90;;;;;;5014046;28;20468;-86
2023/05/22 09:18:36;;;;;;;10.52;9.25;;;22.90;99.90;;;;;;5013482;28;20041;-86
2023/05/22 09:21:02;;;;;;;9.45;8.52;;;23.00;99.90;;;;;;5015872;28;20037;-85
2023/05/22 09:23:28;;;;;;;9.30;7.88;;;23.20;99.90;;;;;;5014009;28;20033;-84
2023/05/22 09:25:58;;;;;;;9.68;7.88;;;23.40;99.90;;;;;;5029345;28;20536;-84
2023/05/22 09:28:25;;;;;;;8.95;8.05;;;23.60;99.90;;;;;;5014247;28;20115;-85
2023/05/22 09:30:52;;;;;;;9.13;8.23;;;23.80;99.90;;;;;;5014962;28;20025;-85
2023/05/22 09:33:18;;;;;;;11.32;9.60;;;24.60;99.90;;;;;;5014072;28;20065;-86
2023/05/22 09:35:46;;;;;;;11.52;8.13;;;25.40;99.90;;;;;;5013269;28;20471;-83
2023/05/22 09:38:12;;;;;;;8.88;7.30;;;25.80;99.90;;;;;;5025137;28;20446;-87
2023/05/22 09:40:39;;;;;;;8.52;7.72;;;26.50;99.90;;;;;;5015744;28;20376;-85
2023/05/22 09:43:11;;;;;;;8.32;7.05;;;27.10;99.90;;;;;;5014350;28;20092;-88
2023/05/22 09:45:38;;;;;;;7.33;6.63;;;27.10;99.90;;;;;;5013845;28;20112;-84
2023/05/22 09:48:08;;;;;;;7.75;6.75;;;27.50;99.90;;;;;;5014168;28;20479;-85
2023/05/22 09:50:34;;;;;;;7.05;6.35;;;28.10;99.90;;;;;;5014821;28;20637;-87
2023/05/22 09:53:04;;;;;;;7.38;6.57;;;28.60;99.90;;;;;;5013818;28;20415;-85
2023/05/22 09:55:30;;;;;;;7.10;6.40;;;29.10;99.90;;;;;;5013590;28;20626;-86
2023/05/22 09:57:58;;;;;;;6.90;6.20;;;29.10;99.90;;;;;;5013147;28;20056;-86
2023/05/22 10:00:25;;;;;;;7.07;6.38;;;28.60;99.90;;;;;;5013442;28;20075;-85
2023/05/22 10:03:02;;;;;;;6.25;5.60;;;28.30;99.90;;;;;;5013593;28;20116;-86
2023/05/22 10:05:32;;;;;;;7.28;6.00;;;28.10;99.90;;;;;;5012672;28;20084;-85
2023/05/22 10:08:09;;;;;;;8.20;6.75;;;28.30;99.90;;;;;;5013882;28;20470;-86
2023/05/22 10:10:35;;;;;;;7.18;6.35;;;28.80;99.90;;;;;;5015898;28;20057;-85
2023/05/22 10:13:03;;;;;;;7.53;6.10;;;29.30;99.90;;;;;;5008963;28;20041;-86
2023/05/22 10:15:29;;;;;;;7.43;6.72;;;29.90;99.90;;;;;;5010135;28;20037;-86
2023/05/22 10:17:56;;;;;;;7.57;6.78;;;30.20;99.90;;;;;;5010612;28;20622;-84
2023/05/22 10:20:25;;;;;;;7.07;6.18;;;30.40;99.90;;;;;;5009894;28;20074;-86
2023/05/22 10:22:52;;;;;;;8.07;6.63;;;30.70;99.90;;;;;;5013193;28;20025;-86
2023/05/22 10:25:17;;;;;;;7.20;6.30;;;30.50;99.90;;;;;;5011588;28;20176;-85
2023/05/22 10:27:44;;;;;;;6.78;6.07;;;30.20;99.90;;;;;;5014138;28;20033;-86
2023/05/22 10:30:18;;;;;;;7.72;6.55;;;30.40;99.90;;;;;;5008835;28;20021;-85
2023/05/22 10:33:12;;;;;;;7.63;6.20;;;31.00;99.90;;;;;;5015518;28;20069;-87
2023/05/22 10:35:46;;;;;;;7.18;6.47;;;31.20;99.90;;;;;;4984880;28;20048;-87
2023/05/22 10:38:33;;;;;;;7.78;6.10;;;30.60;99.90;;;;;;5012357;28;20090;-85
2023/05/22 10:41:02;;;;;;;7.30;5.90;;;30.50;99.90;;;;;;5010814;28;20025;-85
2023/05/22 10:43:32;;;;;;;7.72;6.93;;;30.20;99.90;;;;;;5010413;28;20030;-86
2023/05/22 10:46:02;;;;;;;7.03;6.32;;;30.00;99.90;;;;;;5014098;28;20056;-86
2023/05/22 10:48:35;;;;;;;7.32;6.63;;;29.90;99.90;;;;;;5012004;28;20022;-86
2023/05/22 10:51:03;;;;;;;8.93;7.10;;;30.10;99.90;;;;;;5014165;28;22374;-87
2023/05/22 10:53:31;;;;;;;8.18;7.05;;;30.30;99.90;;;;;;5012819;28;20056;-85
2023/05/22 10:56:01;;;;;;;7.22;6.50;;;30.00;99.90;;;;;;5012801;28;22199;-85
2023/05/22 10:58:31;;;;;;;7.65;6.95;;;29.40;99.90;;;;;;5012418;28;20116;-85
2023/05/22 11:01:16;;;;;;;7.20;6.50;;;28.90;99.90;;;;;;5012322;28;20040;-88
2023/05/22 11:03:59;;;;;;;7.47;6.53;;;29.40;99.90;;;;;;5028283;28;20503;-87
2023/05/22 11:06:40;;;;;;;6.43;5.70;;;30.20;99.90;;;;;;5013226;28;20025;-87
2023/05/22 11:09:15;;;;;;;7.88;7.07;;;30.90;99.90;;;;;;5014889;28;20021;-84
2023/05/22 11:11:41;;;;;;;6.72;5.97;;;31.30;99.90;;;;;;5012084;28;20049;-83
2023/05/22 11:14:06;;;;;;;6.78;6.10;;;31.70;99.90;;;;;;5014604;28;20522;-83
2023/05/22 11:16:32;;;;;;;7.47;6.70;;;32.20;99.90;;;;;;5012696;28;20038;-84
2023/05/22 11:19:08;;;;;;;8.35;7.50;;;32.20;99.90;;;;;;5012324;28;20033;-83
2023/05/22 11:21:45;;;;;;;7.85;7.03;;;32.00;99.90;;;;;;5027583;28;21060;-86
2023/05/22 11:24:14;;;;;;;7.45;6.68;;;31.40;99.90;;;;;;5013581;28;20057;-84
2023/05/22 11:26:43;;;;;;;7.25;6.55;;;30.70;99.90;;;;;;5028420;28;20025;-84
2023/05/22 11:29:09;;;;;;;7.80;7.00;;;30.00;99.90;;;;;;5013285;28;20027;-83
2023/05/22 11:31:38;;;;;;;7.63;6.88;;;30.00;99.90;;;;;;5012223;28;20021;-86
2023/05/22 11:34:03;;;;;;;10.02;8.98;;;30.80;99.90;;;;;;5015329;28;20021;-83
2023/05/22 11:36:30;;;;;;;7.95;7.15;;;31.40;99.90;;;;;;5013960;28;20479;-84
2023/05/22 11:38:57;;;;;;;7.70;6.60;;;31.50;99.90;;;;;;5021110;28;20491;-84
2023/05/22 11:41:23;;;;;;;7.95;7.13;;;31.10;99.90;;;;;;5016017;28;20159;-82
2023/05/22 11:43:49;;;;;;;12.10;8.18;;;30.50;99.90;;;;;;5017212;28;20033;-83
2023/05/22 11:46:15;;;;;;;9.57;8.27;;;29.90;99.90;;;;;;5031369;28;20412;-83
2023/05/22 11:48:41;;;;;;;10.07;8.32;;;29.40;99.90;;;;;;5020743;28;20040;-84
2023/05/22 11:51:08;;;;;;;8.30;7.40;;;29.10;99.90;;;;;;5032277;28;20025;-83
2023/05/22 11:53:34;;;;;;;8.52;7.53;;;29.10;99.90;;;;;;5014135;28;20032;-83
2023/05/22 11:56:04;;;;;;;8.00;7.20;;;29.00;99.90;;;;;;5016577;28;20668;-84
2023/05/22 11:58:30;;;;;;;9.07;8.18;;;28.90;99.90;;;;;;5016148;28;20047;-83
2023/05/22 12:01:01;;;;;;;9.52;8.50;;;29.00;99.90;;;;;;5013305;28;20029;-83
2023/05/22 12:03:27;;;;;;;8.18;7.38;;;29.40;99.90;;;;;;5017163;28;20033;-84
2023/05/22 12:05:53;;;;;;;8.32;7.50;;;30.20;99.90;;;;;;5018277;28;20569;-84
2023/05/22 12:08:19;;;;;;;9.73;7.82;;;30.80;99.90;;;;;;5015043;28;20025;-85
2023/05/22 12:10:52;;;;;;;8.27;7.30;;;31.50;99.90;;;;;;5015480;28;20544;-84
2023/05/22 12:13:25;;;;;;;8.85;7.95;;;31.90;99.90;;;;;;5015083;28;20092;-86
2023/05/22 12:15:59;;;;;;;9.23;8.23;;;31.50;99.90;;;;;;5031920;28;20107;-84
2023/05/22 12:18:26;;;;;;;8.35;7.30;;;30.90;99.90;;;;;;5016033;28;20103;-84
2023/05/22 12:20:53;;;;;;;8.43;7.53;;;30.40;99.90;;;;;;5016573;28;20400;-85
2023/05/22 12:23:26;;;;;;;7.80;7.00;;;29.90;99.90;;;;;;5015019;28;20038;-84
2023/05/22 12:25:58;;;;;;;7.40;6.60;;;29.70;99.90;;;;;;5016789;28;20033;-85
2023/05/22 12:28:24;;;;;;;6.83;6.17;;;29.50;99.90;;;;;;5013351;28;20029;-83
2023/05/22 12:30:54;;;;;;;8.13;6.82;;;29.30;99.90;;;;;;5031399;28;20428;-83
2023/05/22 12:33:28;;;;;;;7.13;6.43;;;29.20;99.90;;;;;;5032047;28;20026;-84
2023/05/22 12:35:57;;;;;;;6.47;5.85;;;29.40;99.90;;;;;;5017094;28;20018;-84
2023/05/22 12:38:28;;;;;;;6.88;6.18;;;30.30;99.90;;;;;;5031639;28;20049;-83